sensor_id;sensor_type;location;lat;lon;timestamp;P1;durP1;ratioP1;P2;durP2;ratioP2
55031;SDS011;40928;51.076;7.950;2023-05-10T00:01:53;3.45;;;0.52;;
55031;SDS011;40928;51.076;7.950;2023-05-10T00:04:19;1.70;;;0.82;;
55031;SDS011;40928;51.076;7.950;2023-05-10T00:06:46;0.60;;;0.52;;
55031;SDS011;40928;51.076;7.950;2023-05-10T00:09:12;0.43;;;0.40;;
55031;SDS011;40928;51.076;7.950;2023-05-10T00:11:37;1.08;;;0.90;;
55031;SDS011;40928;51.076;7.950;2023-05-10T00:14:03;0.70;;;0.40;;
55031;SDS011;40928;51.076;7.950;2023-05-10T00:16:28;0.60;;;0.50;;
55031;SDS011;40928;51.076;7.950;2023-05-10T00:18:54;1.08;;;0.57;;
55031;SDS011;40928;51.076;7.950;2023-05-10T00:21:20;0.55;;;0.47;;
55031;SDS011;40928;51.076;7.950;2023-05-10T00:23:45;0.82;;;0.80;;
55031;SDS011;40928;51.076;7.950;2023-05-10T00:26:11;0.68;;;0.47;;
55031;SDS011;40928;51.076;7.950;2023-05-10T00:28:37;0.93;;;0.73;;
55031;SDS011;40928;51.076;7.950;2023-05-10T00:31:02;1.95;;;0.30;;
55031;SDS011;40928;51.076;7.950;2023-05-10T00:33:28;1.33;;;0.50;;
55031;SDS011;40928;51.076;7.950;2023-05-10T00:35:54;0.52;;;0.50;;
55031;SDS011;40928;51.076;7.950;2023-05-10T00:38:20;0.63;;;0.43;;
55031;SDS011;40928;51.076;7.950;2023-05-10T00:40:45;1.15;;;0.50;;
55031;SDS011;40928;51.076;7.950;2023-05-10T00:43:19;0.32;;;0.30;;
55031;SDS011;40928;51.076;7.950;2023-05-10T00:45:46;1.02;;;0.75;;
55031;SDS011;40928;51.076;7.950;2023-05-10T00:48:12;0.50;;;0.50;;
55031;SDS011;40928;51.076;7.950;2023-05-10T00:50:38;0.70;;;0.60;;
55031;SDS011;40928;51.076;7.950;2023-05-10T00:53:05;0.85;;;0.47;;
55031;SDS011;40928;51.076;7.950;2023-05-10T00:55:30;0.50;;;0.50;;
55031;SDS011;40928;51.076;7.950;2023-05-10T00:57:57;0.60;;;0.40;;
55031;SDS011;40928;51.076;7.950;2023-05-10T01:00:22;2.38;;;0.50;;
55031;SDS011;40928;51.076;7.950;2023-05-10T01:02:48;0.50;;;0.40;;
55031;SDS011;40928;51.076;7.950;2023-05-10T01:05:15;1.90;;;0.60;;
55031;SDS011;40928;51.076;7.950;2023-05-10T01:07:42;0.40;;;0.40;;
55031;SDS011;40928;51.076;7.950;2023-05-10T01:10:08;0.60;;;0.50;;
55031;SDS011;40928;51.076;7.950;2023-05-10T01:12:35;0.50;;;0.40;;
55031;SDS011;40928;51.076;7.950;2023-05-10T01:15:04;3.00;;;0.75;;
55031;SDS011;40928;51.076;7.950;2023-05-10T01:17:31;0.70;;;0.60;;
55031;SDS011;40928;51.076;7.950;2023-05-10T01:19:58;0.70;;;0.50;;
55031;SDS011;40928;51.076;7.950;2023-05-10T01:33:22;1.52;;;0.50;;
55031;SDS011;40928;51.076;7.950;2023-05-10T01:36:02;0.88;;;0.40;;
55031;SDS011;40928;51.076;7.950;2023-05-10T01:38:35;0.68;;;0.45;;
55031;SDS011;40928;51.076;7.950;2023-05-10T01:43:49;1.10;;;0.70;;
55031;SDS011;40928;51.076;7.950;2023-05-10T01:46:20;0.40;;;0.30;;
55031;SDS011;40928;51.076;7.950;2023-05-10T01:48:53;1.15;;;0.60;;
55031;SDS011;40928;51.076;7.950;2023-05-10T01:51:26;0.30;;;0.22;;
55031;SDS011;40928;51.076;7.950;2023-05-10T01:53:59;2.28;;;0.75;;
55031;SDS011;40928;51.076;7.950;2023-05-10T01:56:28;2.83;;;1.20;;
55031;SDS011;40928;51.076;7.950;2023-05-10T01:58:56;0.95;;;0.50;;
55031;SDS011;40928;51.076;7.950;2023-05-10T02:01:24;0.25;;;0.25;;
55031;SDS011;40928;51.076;7.950;2023-05-10T02:03:51;3.22;;;0.50;;
55031;SDS011;40928;51.076;7.950;2023-05-10T02:06:18;1.05;;;0.60;;
55031;SDS011;40928;51.076;7.950;2023-05-10T02:08:47;0.93;;;0.50;;
55031;SDS011;40928;51.076;7.950;2023-05-10T02:11:15;0.93;;;0.60;;
55031;SDS011;40928;51.076;7.950;2023-05-10T02:13:43;1.20;;;0.90;;
55031;SDS011;40928;51.076;7.950;2023-05-10T02:16:12;2.00;;;0.82;;
55031;SDS011;40928;51.076;7.950;2023-05-10T02:18:39;5.97;;;0.85;;
55031;SDS011;40928;51.076;7.950;2023-05-10T02:21:06;1.00;;;0.75;;
55031;SDS011;40928;51.076;7.950;2023-05-10T02:23:33;0.70;;;0.57;;
55031;SDS011;40928;51.076;7.950;2023-05-10T02:26:01;1.40;;;0.75;;
55031;SDS011;40928;51.076;7.950;2023-05-10T02:28:27;2.28;;;1.02;;
55031;SDS011;40928;51.076;7.950;2023-05-10T02:30:54;1.88;;;0.90;;
55031;SDS011;40928;51.076;7.950;2023-05-10T02:33:21;3.75;;;0.75;;
55031;SDS011;40928;51.076;7.950;2023-05-10T02:35:47;0.70;;;0.47;;
55031;SDS011;40928;51.076;7.950;2023-05-10T02:38:15;1.08;;;0.65;;
55031;SDS011;40928;51.076;7.950;2023-05-10T02:40:42;2.60;;;0.60;;
55031;SDS011;40928;51.076;7.950;2023-05-10T02:43:09;0.80;;;0.60;;
55031;SDS011;40928;51.076;7.950;2023-05-10T02:45:38;1.05;;;0.40;;
55031;SDS011;40928;51.076;7.950;2023-05-10T02:48:05;1.25;;;0.52;;
55031;SDS011;40928;51.076;7.950;2023-05-10T02:50:32;0.63;;;0.57;;
55031;SDS011;40928;51.076;7.950;2023-05-10T02:53:03;1.25;;;0.88;;
55031;SDS011;40928;51.076;7.950;2023-05-10T02:55:39;1.58;;;1.08;;
55031;SDS011;40928;51.076;7.950;2023-05-10T02:58:07;2.05;;;1.05;;
55031;SDS011;40928;51.076;7.950;2023-05-10T03:00:32;2.85;;;1.17;;
55031;SDS011;40928;51.076;7.950;2023-05-10T03:02:58;3.28;;;1.17;;
55031;SDS011;40928;51.076;7.950;2023-05-10T03:05:25;1.23;;;0.77;;
55031;SDS011;40928;51.076;7.950;2023-05-10T03:07:51;0.82;;;0.80;;
55031;SDS011;40928;51.076;7.950;2023-05-10T03:10:18;1.05;;;0.75;;
55031;SDS011;40928;51.076;7.950;2023-05-10T03:12:50;2.80;;;1.00;;
55031;SDS011;40928;51.076;7.950;2023-05-10T03:18:10;2.22;;;1.30;;
55031;SDS011;40928;51.076;7.950;2023-05-10T03:20:46;1.83;;;1.42;;
55031;SDS011;40928;51.076;7.950;2023-05-10T03:23:20;1.92;;;1.20;;
55031;SDS011;40928;51.076;7.950;2023-05-10T03:25:49;1.67;;;1.50;;
55031;SDS011;40928;51.076;7.950;2023-05-10T03:28:16;3.03;;;2.00;;
55031;SDS011;40928;51.076;7.950;2023-05-10T03:30:43;2.30;;;1.83;;
55031;SDS011;40928;51.076;7.950;2023-05-10T03:33:11;4.50;;;2.65;;
55031;SDS011;40928;51.076;7.950;2023-05-10T03:35:41;3.70;;;2.58;;
55031;SDS011;40928;51.076;7.950;2023-05-10T03:38:07;4.15;;;2.58;;
55031;SDS011;40928;51.076;7.950;2023-05-10T03:40:33;3.67;;;2.50;;
55031;SDS011;40928;51.076;7.950;2023-05-10T03:42:58;2.72;;;2.33;;
55031;SDS011;40928;51.076;7.950;2023-05-10T03:45:25;4.68;;;3.20;;
55031;SDS011;40928;51.076;7.950;2023-05-10T03:47:50;3.72;;;2.80;;
55031;SDS011;40928;51.076;7.950;2023-05-10T03:50:16;4.15;;;3.05;;
55031;SDS011;40928;51.076;7.950;2023-05-10T03:52:42;5.70;;;3.67;;
55031;SDS011;40928;51.076;7.950;2023-05-10T03:55:07;5.30;;;3.60;;
55031;SDS011;40928;51.076;7.950;2023-05-10T03:57:33;5.50;;;3.63;;
55031;SDS011;40928;51.076;7.950;2023-05-10T03:59:59;4.15;;;3.40;;
55031;SDS011;40928;51.076;7.950;2023-05-10T04:02:25;4.72;;;3.17;;
55031;SDS011;40928;51.076;7.950;2023-05-10T04:04:51;5.18;;;3.42;;
55031;SDS011;40928;51.076;7.950;2023-05-10T04:07:17;3.97;;;3.10;;
55031;SDS011;40928;51.076;7.950;2023-05-10T04:09:43;4.80;;;3.75;;
55031;SDS011;40928;51.076;7.950;2023-05-10T04:12:08;5.07;;;2.65;;
55031;SDS011;40928;51.076;7.950;2023-05-10T04:14:34;3.90;;;3.15;;
55031;SDS011;40928;51.076;7.950;2023-05-10T04:17:00;4.03;;;2.85;;
55031;SDS011;40928;51.076;7.950;2023-05-10T04:19:31;3.65;;;2.55;;
55031;SDS011;40928;51.076;7.950;2023-05-10T04:21:57;5.50;;;3.80;;
55031;SDS011;40928;51.076;7.950;2023-05-10T04:24:23;4.57;;;3.22;;
55031;SDS011;40928;51.076;7.950;2023-05-10T04:26:49;5.55;;;3.63;;
55031;SDS011;40928;51.076;7.950;2023-05-10T04:29:16;4.72;;;3.70;;
55031;SDS011;40928;51.076;7.950;2023-05-10T04:31:50;5.25;;;3.47;;
55031;SDS011;40928;51.076;7.950;2023-05-10T04:34:16;4.00;;;2.72;;
55031;SDS011;40928;51.076;7.950;2023-05-10T04:36:41;4.75;;;3.63;;
55031;SDS011;40928;51.076;7.950;2023-05-10T04:39:07;4.80;;;3.63;;
55031;SDS011;40928;51.076;7.950;2023-05-10T04:41:32;3.80;;;2.58;;
55031;SDS011;40928;51.076;7.950;2023-05-10T04:43:58;3.70;;;2.83;;
55031;SDS011;40928;51.076;7.950;2023-05-10T04:46:23;3.83;;;2.45;;
55031;SDS011;40928;51.076;7.950;2023-05-10T04:48:49;4.85;;;2.92;;
55031;SDS011;40928;51.076;7.950;2023-05-10T04:51:14;4.05;;;2.65;;
55031;SDS011;40928;51.076;7.950;2023-05-10T04:53:40;1.80;;;1.63;;
55031;SDS011;40928;51.076;7.950;2023-05-10T04:56:05;5.20;;;3.13;;
55031;SDS011;40928;51.076;7.950;2023-05-10T04:58:32;3.95;;;2.83;;
55031;SDS011;40928;51.076;7.950;2023-05-10T05:01:03;3.80;;;2.78;;
55031;SDS011;40928;51.076;7.950;2023-05-10T05:03:30;6.47;;;2.70;;
55031;SDS011;40928;51.076;7.950;2023-05-10T05:05:55;4.53;;;2.90;;
55031;SDS011;40928;51.076;7.950;2023-05-10T05:08:21;5.13;;;2.80;;
55031;SDS011;40928;51.076;7.950;2023-05-10T05:10:47;4.68;;;2.95;;
55031;SDS011;40928;51.076;7.950;2023-05-10T05:13:15;4.95;;;2.72;;
55031;SDS011;40928;51.076;7.950;2023-05-10T05:15:40;3.47;;;2.15;;
55031;SDS011;40928;51.076;7.950;2023-05-10T05:18:06;3.47;;;2.42;;
55031;SDS011;40928;51.076;7.950;2023-05-10T05:20:32;3.42;;;2.55;;
55031;SDS011;40928;51.076;7.950;2023-05-10T05:22:58;7.35;;;3.58;;
55031;SDS011;40928;51.076;7.950;2023-05-10T05:25:24;5.18;;;3.80;;
55031;SDS011;40928;51.076;7.950;2023-05-10T05:27:49;3.35;;;2.85;;
55031;SDS011;40928;51.076;7.950;2023-05-10T05:30:15;7.00;;;3.55;;
55031;SDS011;40928;51.076;7.950;2023-05-10T05:32:40;5.28;;;3.47;;
55031;SDS011;40928;51.076;7.950;2023-05-10T05:35:06;5.38;;;3.70;;
55031;SDS011;40928;51.076;7.950;2023-05-10T05:37:32;5.63;;;3.92;;
55031;SDS011;40928;51.076;7.950;2023-05-10T05:39:57;7.30;;;3.83;;
55031;SDS011;40928;51.076;7.950;2023-05-10T05:42:23;6.07;;;4.05;;
55031;SDS011;40928;51.076;7.950;2023-05-10T05:44:48;10.15;;;5.00;;
55031;SDS011;40928;51.076;7.950;2023-05-10T05:47:14;8.75;;;4.57;;
55031;SDS011;40928;51.076;7.950;2023-05-10T05:49:39;6.75;;;4.97;;
55031;SDS011;40928;51.076;7.950;2023-05-10T05:52:05;6.85;;;4.90;;
55031;SDS011;40928;51.076;7.950;2023-05-10T05:54:30;6.22;;;4.18;;
55031;SDS011;40928;51.076;7.950;2023-05-10T05:56:56;7.93;;;4.85;;
55031;SDS011;40928;51.076;7.950;2023-05-10T05:59:23;7.63;;;3.97;;
55031;SDS011;40928;51.076;7.950;2023-05-10T06:01:49;8.82;;;4.88;;
55031;SDS011;40928;51.076;7.950;2023-05-10T06:04:15;6.88;;;3.85;;
55031;SDS011;40928;51.076;7.950;2023-05-10T06:06:42;6.43;;;3.78;;
55031;SDS011;40928;51.076;7.950;2023-05-10T06:09:07;10.48;;;3.72;;
55031;SDS011;40928;51.076;7.950;2023-05-10T06:11:34;3.78;;;2.40;;
55031;SDS011;40928;51.076;7.950;2023-05-10T06:14:00;5.60;;;3.00;;
55031;SDS011;40928;51.076;7.950;2023-05-10T06:16:26;4.93;;;3.25;;
55031;SDS011;40928;51.076;7.950;2023-05-10T06:18:52;4.18;;;3.50;;
55031;SDS011;40928;51.076;7.950;2023-05-10T06:21:17;5.00;;;3.67;;
55031;SDS011;40928;51.076;7.950;2023-05-10T06:23:43;4.18;;;2.60;;
55031;SDS011;40928;51.076;7.950;2023-05-10T06:26:09;5.72;;;3.33;;
55031;SDS011;40928;51.076;7.950;2023-05-10T06:28:35;4.40;;;2.88;;
55031;SDS011;40928;51.076;7.950;2023-05-10T06:31:03;5.95;;;3.53;;
55031;SDS011;40928;51.076;7.950;2023-05-10T06:33:30;6.13;;;3.90;;
55031;SDS011;40928;51.076;7.950;2023-05-10T06:35:56;7.82;;;4.65;;
55031;SDS011;40928;51.076;7.950;2023-05-10T06:38:22;7.40;;;4.60;;
55031;SDS011;40928;51.076;7.950;2023-05-10T06:40:48;11.55;;;5.00;;
55031;SDS011;40928;51.076;7.950;2023-05-10T06:43:14;8.70;;;5.75;;
55031;SDS011;40928;51.076;7.950;2023-05-10T06:45:39;13.15;;;6.07;;
55031;SDS011;40928;51.076;7.950;2023-05-10T06:48:06;10.55;;;6.03;;
55031;SDS011;40928;51.076;7.950;2023-05-10T06:50:31;9.23;;;5.97;;
55031;SDS011;40928;51.076;7.950;2023-05-10T06:52:58;12.30;;;6.32;;
55031;SDS011;40928;51.076;7.950;2023-05-10T06:55:24;13.85;;;6.70;;
55031;SDS011;40928;51.076;7.950;2023-05-10T06:57:50;9.50;;;5.95;;
55031;SDS011;40928;51.076;7.950;2023-05-10T07:00:16;8.52;;;5.45;;
55031;SDS011;40928;51.076;7.950;2023-05-10T07:02:42;10.73;;;6.15;;
55031;SDS011;40928;51.076;7.950;2023-05-10T07:05:07;11.95;;;6.25;;
55031;SDS011;40928;51.076;7.950;2023-05-10T07:07:33;13.18;;;5.45;;
55031;SDS011;40928;51.076;7.950;2023-05-10T07:09:59;8.80;;;5.22;;
55031;SDS011;40928;51.076;7.950;2023-05-10T07:12:24;9.68;;;5.50;;
55031;SDS011;40928;51.076;7.950;2023-05-10T07:14:50;10.77;;;5.80;;
55031;SDS011;40928;51.076;7.950;2023-05-10T07:17:15;10.27;;;6.05;;
55031;SDS011;40928;51.076;7.950;2023-05-10T07:19:41;11.52;;;6.00;;
55031;SDS011;40928;51.076;7.950;2023-05-10T07:22:06;12.68;;;6.50;;
55031;SDS011;40928;51.076;7.950;2023-05-10T07:24:33;10.05;;;5.90;;
55031;SDS011;40928;51.076;7.950;2023-05-10T07:26:59;11.02;;;6.47;;
55031;SDS011;40928;51.076;7.950;2023-05-10T07:29:25;9.63;;;5.25;;
55031;SDS011;40928;51.076;7.950;2023-05-10T07:31:51;10.25;;;6.07;;
55031;SDS011;40928;51.076;7.950;2023-05-10T07:34:16;12.15;;;7.03;;
55031;SDS011;40928;51.076;7.950;2023-05-10T07:36:41;12.70;;;7.35;;
55031;SDS011;40928;51.076;7.950;2023-05-10T07:39:07;12.10;;;7.15;;
55031;SDS011;40928;51.076;7.950;2023-05-10T07:41:33;12.45;;;7.00;;
55031;SDS011;40928;51.076;7.950;2023-05-10T07:43:58;15.15;;;6.90;;
55031;SDS011;40928;51.076;7.950;2023-05-10T07:46:24;13.73;;;7.38;;
55031;SDS011;40928;51.076;7.950;2023-05-10T07:48:50;15.80;;;7.40;;
55031;SDS011;40928;51.076;7.950;2023-05-10T07:51:15;13.90;;;7.20;;
55031;SDS011;40928;51.076;7.950;2023-05-10T07:53:40;11.38;;;7.10;;
55031;SDS011;40928;51.076;7.950;2023-05-10T07:56:28;9.88;;;5.93;;
55031;SDS011;40928;51.076;7.950;2023-05-10T07:58:58;10.35;;;5.50;;
55031;SDS011;40928;51.076;7.950;2023-05-10T08:01:25;12.02;;;6.38;;
55031;SDS011;40928;51.076;7.950;2023-05-10T08:03:51;12.13;;;6.57;;
55031;SDS011;40928;51.076;7.950;2023-05-10T08:06:18;8.98;;;5.72;;
55031;SDS011;40928;51.076;7.950;2023-05-10T08:08:48;11.52;;;5.93;;
55031;SDS011;40928;51.076;7.950;2023-05-10T08:11:18;9.98;;;5.43;;
55031;SDS011;40928;51.076;7.950;2023-05-10T08:13:45;10.73;;;5.95;;
55031;SDS011;40928;51.076;7.950;2023-05-10T08:16:12;13.73;;;6.57;;
55031;SDS011;40928;51.076;7.950;2023-05-10T08:18:38;10.93;;;5.97;;
55031;SDS011;40928;51.076;7.950;2023-05-10T08:21:04;10.85;;;6.35;;
55031;SDS011;40928;51.076;7.950;2023-05-10T08:23:30;12.23;;;6.78;;
55031;SDS011;40928;51.076;7.950;2023-05-10T08:25:56;12.95;;;6.22;;
55031;SDS011;40928;51.076;7.950;2023-05-10T08:28:22;10.52;;;6.68;;
55031;SDS011;40928;51.076;7.950;2023-05-10T08:30:51;14.95;;;8.52;;
55031;SDS011;40928;51.076;7.950;2023-05-10T08:33:20;17.42;;;10.18;;
55031;SDS011;40928;51.076;7.950;2023-05-10T08:35:45;19.50;;;10.90;;
55031;SDS011;40928;51.076;7.950;2023-05-10T08:38:11;22.50;;;11.73;;
55031;SDS011;40928;51.076;7.950;2023-05-10T08:40:38;20.05;;;11.52;;
55031;SDS011;40928;51.076;7.950;2023-05-10T08:43:07;20.75;;;11.48;;
55031;SDS011;40928;51.076;7.950;2023-05-10T08:45:38;20.05;;;11.95;;
55031;SDS011;40928;51.076;7.950;2023-05-10T08:48:06;22.10;;;12.18;;
55031;SDS011;40928;51.076;7.950;2023-05-10T08:50:36;19.63;;;11.20;;
55031;SDS011;40928;51.076;7.950;2023-05-10T08:53:04;23.27;;;10.05;;
55031;SDS011;40928;51.076;7.950;2023-05-10T08:55:32;15.20;;;10.13;;
55031;SDS011;40928;51.076;7.950;2023-05-10T08:57:59;18.85;;;10.35;;
55031;SDS011;40928;51.076;7.950;2023-05-10T09:00:25;16.67;;;9.63;;
55031;SDS011;40928;51.076;7.950;2023-05-10T09:02:51;15.05;;;9.20;;
55031;SDS011;40928;51.076;7.950;2023-05-10T09:05:17;18.05;;;9.90;;
55031;SDS011;40928;51.076;7.950;2023-05-10T09:07:43;14.93;;;8.82;;
55031;SDS011;40928;51.076;7.950;2023-05-10T09:10:09;15.60;;;8.32;;
55031;SDS011;40928;51.076;7.950;2023-05-10T09:12:36;14.82;;;9.23;;
55031;SDS011;40928;51.076;7.950;2023-05-10T09:15:03;14.18;;;8.50;;
55031;SDS011;40928;51.076;7.950;2023-05-10T09:17:30;12.13;;;8.13;;
55031;SDS011;40928;51.076;7.950;2023-05-10T09:19:57;13.15;;;8.90;;
55031;SDS011;40928;51.076;7.950;2023-05-10T09:22:27;10.77;;;7.50;;
55031;SDS011;40928;51.076;7.950;2023-05-10T09:25:12;15.02;;;8.10;;
55031;SDS011;40928;51.076;7.950;2023-05-10T09:27:39;14.40;;;8.70;;
55031;SDS011;40928;51.076;7.950;2023-05-10T09:30:05;16.67;;;10.43;;
55031;SDS011;40928;51.076;7.950;2023-05-10T09:32:39;17.55;;;9.95;;
55031;SDS011;40928;51.076;7.950;2023-05-10T09:35:11;16.52;;;10.35;;
55031;SDS011;40928;51.076;7.950;2023-05-10T09:37:39;15.10;;;9.88;;
55031;SDS011;40928;51.076;7.950;2023-05-10T09:40:16;17.55;;;10.15;;
55031;SDS011;40928;51.076;7.950;2023-05-10T09:42:43;18.70;;;11.32;;
55031;SDS011;40928;51.076;7.950;2023-05-10T09:45:17;18.88;;;10.45;;
55031;SDS011;40928;51.076;7.950;2023-05-10T09:47:42;20.80;;;10.93;;
55031;SDS011;40928;51.076;7.950;2023-05-10T09:50:09;17.65;;;10.45;;
55031;SDS011;40928;51.076;7.950;2023-05-10T09:52:51;19.75;;;11.18;;
55031;SDS011;40928;51.076;7.950;2023-05-10T09:55:21;20.70;;;12.13;;
55031;SDS011;40928;51.076;7.950;2023-05-10T09:58:00;23.02;;;12.43;;
55031;SDS011;40928;51.076;7.950;2023-05-10T10:00:27;22.00;;;13.68;;
55031;SDS011;40928;51.076;7.950;2023-05-10T10:02:57;22.85;;;12.68;;
55031;SDS011;40928;51.076;7.950;2023-05-10T10:05:33;19.45;;;11.40;;
55031;SDS011;40928;51.076;7.950;2023-05-10T10:08:01;19.17;;;12.23;;
55031;SDS011;40928;51.076;7.950;2023-05-10T10:10:29;17.38;;;10.70;;
55031;SDS011;40928;51.076;7.950;2023-05-10T10:12:57;16.77;;;9.88;;
55031;SDS011;40928;51.076;7.950;2023-05-10T10:15:25;17.52;;;10.50;;
55031;SDS011;40928;51.076;7.950;2023-05-10T10:17:51;18.83;;;10.73;;
55031;SDS011;40928;51.076;7.950;2023-05-10T10:20:18;17.50;;;11.18;;
55031;SDS011;40928;51.076;7.950;2023-05-10T10:22:46;15.82;;;9.55;;
55031;SDS011;40928;51.076;7.950;2023-05-10T10:25:12;15.50;;;9.50;;
55031;SDS011;40928;51.076;7.950;2023-05-10T10:27:54;14.93;;;8.70;;
55031;SDS011;40928;51.076;7.950;2023-05-10T10:30:37;12.80;;;8.75;;
55031;SDS011;40928;51.076;7.950;2023-05-10T10:35:39;11.90;;;7.03;;
55031;SDS011;40928;51.076;7.950;2023-05-10T10:38:07;10.38;;;6.50;;
55031;SDS011;40928;51.076;7.950;2023-05-10T10:40:33;11.38;;;6.75;;
55031;SDS011;40928;51.076;7.950;2023-05-10T10:43:21;11.55;;;6.20;;
55031;SDS011;40928;51.076;7.950;2023-05-10T10:48:40;8.13;;;5.57;;
55031;SDS011;40928;51.076;7.950;2023-05-10T10:51:12;9.57;;;5.53;;
55031;SDS011;40928;51.076;7.950;2023-05-10T10:53:38;7.25;;;5.35;;
55031;SDS011;40928;51.076;7.950;2023-05-10T10:56:12;7.93;;;5.18;;
55031;SDS011;40928;51.076;7.950;2023-05-10T10:58:40;7.60;;;3.78;;
55031;SDS011;40928;51.076;7.950;2023-05-10T11:01:16;7.05;;;3.67;;
55031;SDS011;40928;51.076;7.950;2023-05-10T11:06:30;9.07;;;4.78;;
55031;SDS011;40928;51.076;7.950;2023-05-10T11:08:59;7.47;;;4.43;;
55031;SDS011;40928;51.076;7.950;2023-05-10T11:11:30;10.07;;;4.45;;
55031;SDS011;40928;51.076;7.950;2023-05-10T11:13:56;7.55;;;4.43;;
55031;SDS011;40928;51.076;7.950;2023-05-10T11:16:28;9.07;;;4.85;;
55031;SDS011;40928;51.076;7.950;2023-05-10T11:19:07;12.48;;;5.50;;
55031;SDS011;40928;51.076;7.950;2023-05-10T11:21:34;14.30;;;5.70;;
55031;SDS011;40928;51.076;7.950;2023-05-10T11:24:14;16.08;;;7.55;;
55031;SDS011;40928;51.076;7.950;2023-05-10T11:26:42;9.35;;;5.18;;
55031;SDS011;40928;51.076;7.950;2023-05-10T11:29:07;11.60;;;5.72;;
55031;SDS011;40928;51.076;7.950;2023-05-10T11:36:56;10.30;;;5.88;;
55031;SDS011;40928;51.076;7.950;2023-05-10T11:39:26;13.77;;;7.07;;
55031;SDS011;40928;51.076;7.950;2023-05-10T11:41:53;8.60;;;4.95;;
55031;SDS011;40928;51.076;7.950;2023-05-10T11:44:19;10.30;;;3.08;;
55031;SDS011;40928;51.076;7.950;2023-05-10T11:46:45;4.22;;;2.22;;
55031;SDS011;40928;51.076;7.950;2023-05-10T11:49:10;7.50;;;2.17;;
55031;SDS011;40928;51.076;7.950;2023-05-10T11:51:36;2.92;;;1.90;;
55031;SDS011;40928;51.076;7.950;2023-05-10T11:54:06;7.03;;;3.38;;
55031;SDS011;40928;51.076;7.950;2023-05-10T11:56:33;7.57;;;2.65;;
55031;SDS011;40928;51.076;7.950;2023-05-10T11:58:59;5.13;;;2.95;;
55031;SDS011;40928;51.076;7.950;2023-05-10T12:01:28;6.10;;;3.38;;
55031;SDS011;40928;51.076;7.950;2023-05-10T12:03:54;6.25;;;2.97;;
55031;SDS011;40928;51.076;7.950;2023-05-10T12:06:29;6.75;;;3.65;;
55031;SDS011;40928;51.076;7.950;2023-05-10T12:08:56;6.57;;;4.05;;
55031;SDS011;40928;51.076;7.950;2023-05-10T12:11:24;15.27;;;4.90;;
55031;SDS011;40928;51.076;7.950;2023-05-10T12:13:51;10.63;;;5.05;;
55031;SDS011;40928;51.076;7.950;2023-05-10T12:16:17;9.68;;;4.95;;
55031;SDS011;40928;51.076;7.950;2023-05-10T12:18:45;8.93;;;4.70;;
55031;SDS011;40928;51.076;7.950;2023-05-10T12:21:13;9.75;;;4.30;;
55031;SDS011;40928;51.076;7.950;2023-05-10T12:23:40;8.57;;;3.97;;
55031;SDS011;40928;51.076;7.950;2023-05-10T12:26:08;9.55;;;4.50;;
55031;SDS011;40928;51.076;7.950;2023-05-10T12:28:35;8.40;;;3.85;;
55031;SDS011;40928;51.076;7.950;2023-05-10T12:31:01;7.47;;;4.10;;
55031;SDS011;40928;51.076;7.950;2023-05-10T12:33:27;8.35;;;4.53;;
55031;SDS011;40928;51.076;7.950;2023-05-10T12:36:01;8.00;;;4.40;;
55031;SDS011;40928;51.076;7.950;2023-05-10T12:41:01;5.47;;;3.42;;
55031;SDS011;40928;51.076;7.950;2023-05-10T12:43:28;5.00;;;3.33;;
55031;SDS011;40928;51.076;7.950;2023-05-10T12:45:54;7.47;;;4.10;;
55031;SDS011;40928;51.076;7.950;2023-05-10T12:48:20;13.07;;;4.80;;
55031;SDS011;40928;51.076;7.950;2023-05-10T12:50:45;9.43;;;5.45;;
55031;SDS011;40928;51.076;7.950;2023-05-10T12:53:12;10.98;;;6.78;;
55031;SDS011;40928;51.076;7.950;2023-05-10T12:55:40;12.50;;;7.47;;
55031;SDS011;40928;51.076;7.950;2023-05-10T12:58:09;18.05;;;7.95;;
55031;SDS011;40928;51.076;7.950;2023-05-10T13:00:35;12.77;;;7.68;;
55031;SDS011;40928;51.076;7.950;2023-05-10T13:03:03;12.85;;;7.68;;
55031;SDS011;40928;51.076;7.950;2023-05-10T13:05:34;14.27;;;8.75;;
55031;SDS011;40928;51.076;7.950;2023-05-10T13:08:00;17.90;;;8.65;;
55031;SDS011;40928;51.076;7.950;2023-05-10T13:10:26;13.93;;;8.70;;
55031;SDS011;40928;51.076;7.950;2023-05-10T13:12:52;13.02;;;7.45;;
55031;SDS011;40928;51.076;7.950;2023-05-10T13:15:17;12.70;;;7.70;;
55031;SDS011;40928;51.076;7.950;2023-05-10T13:17:42;14.73;;;8.13;;
55031;SDS011;40928;51.076;7.950;2023-05-10T13:20:08;15.52;;;8.85;;
55031;SDS011;40928;51.076;7.950;2023-05-10T13:22:34;16.02;;;8.82;;
55031;SDS011;40928;51.076;7.950;2023-05-10T13:25:01;17.17;;;8.75;;
55031;SDS011;40928;51.076;7.950;2023-05-10T13:27:26;15.63;;;8.30;;
55031;SDS011;40928;51.076;7.950;2023-05-10T13:29:53;16.80;;;9.65;;
55031;SDS011;40928;51.076;7.950;2023-05-10T13:32:19;17.80;;;9.98;;
55031;SDS011;40928;51.076;7.950;2023-05-10T13:34:45;14.85;;;9.60;;
55031;SDS011;40928;51.076;7.950;2023-05-10T13:37:11;22.35;;;10.40;;
55031;SDS011;40928;51.076;7.950;2023-05-10T13:39:36;17.15;;;9.55;;
55031;SDS011;40928;51.076;7.950;2023-05-10T13:42:02;18.83;;;10.55;;
55031;SDS011;40928;51.076;7.950;2023-05-10T13:44:29;18.45;;;10.55;;
55031;SDS011;40928;51.076;7.950;2023-05-10T13:46:55;16.27;;;10.00;;
55031;SDS011;40928;51.076;7.950;2023-05-10T13:49:21;15.00;;;9.70;;
55031;SDS011;40928;51.076;7.950;2023-05-10T13:51:47;18.83;;;10.27;;
55031;SDS011;40928;51.076;7.950;2023-05-10T13:54:12;16.55;;;10.23;;
55031;SDS011;40928;51.076;7.950;2023-05-10T13:56:38;17.38;;;8.57;;
55031;SDS011;40928;51.076;7.950;2023-05-10T13:59:06;14.27;;;9.00;;
55031;SDS011;40928;51.076;7.950;2023-05-10T14:01:32;15.25;;;9.63;;
55031;SDS011;40928;51.076;7.950;2023-05-10T14:03:58;23.02;;;12.25;;
55031;SDS011;40928;51.076;7.950;2023-05-10T14:06:24;18.25;;;10.73;;
55031;SDS011;40928;51.076;7.950;2023-05-10T14:08:50;17.05;;;9.63;;
55031;SDS011;40928;51.076;7.950;2023-05-10T14:11:15;17.17;;;8.85;;
55031;SDS011;40928;51.076;7.950;2023-05-10T14:13:41;27.25;;;9.75;;
55031;SDS011;40928;51.076;7.950;2023-05-10T14:16:08;23.20;;;9.05;;
55031;SDS011;40928;51.076;7.950;2023-05-10T14:18:33;14.88;;;7.57;;
55031;SDS011;40928;51.076;7.950;2023-05-10T14:20:59;14.55;;;7.10;;
55031;SDS011;40928;51.076;7.950;2023-05-10T14:23:24;12.30;;;7.90;;
55031;SDS011;40928;51.076;7.950;2023-05-10T14:25:51;14.45;;;8.15;;
55031;SDS011;40928;51.076;7.950;2023-05-10T14:28:17;17.25;;;8.55;;
55031;SDS011;40928;51.076;7.950;2023-05-10T14:30:43;17.30;;;7.82;;
55031;SDS011;40928;51.076;7.950;2023-05-10T14:33:09;14.35;;;8.07;;
55031;SDS011;40928;51.076;7.950;2023-05-10T14:35:35;13.32;;;7.85;;
55031;SDS011;40928;51.076;7.950;2023-05-10T14:38:01;14.35;;;8.10;;
55031;SDS011;40928;51.076;7.950;2023-05-10T14:40:28;15.05;;;8.85;;
55031;SDS011;40928;51.076;7.950;2023-05-10T14:42:54;16.40;;;8.52;;
55031;SDS011;40928;51.076;7.950;2023-05-10T14:45:20;15.85;;;8.50;;
55031;SDS011;40928;51.076;7.950;2023-05-10T14:47:46;14.70;;;8.75;;
55031;SDS011;40928;51.076;7.950;2023-05-10T14:50:11;15.88;;;8.98;;
55031;SDS011;40928;51.076;7.950;2023-05-10T14:52:37;11.75;;;7.10;;
55031;SDS011;40928;51.076;7.950;2023-05-10T14:55:03;13.73;;;8.13;;
55031;SDS011;40928;51.076;7.950;2023-05-10T14:57:28;11.75;;;7.13;;
55031;SDS011;40928;51.076;7.950;2023-05-10T14:59:55;12.60;;;7.32;;
55031;SDS011;40928;51.076;7.950;2023-05-10T15:02:21;13.20;;;6.40;;
55031;SDS011;40928;51.076;7.950;2023-05-10T15:04:47;15.15;;;7.32;;
55031;SDS011;40928;51.076;7.950;2023-05-10T15:07:12;12.77;;;6.75;;
55031;SDS011;40928;51.076;7.950;2023-05-10T15:09:40;11.85;;;6.57;;
55031;SDS011;40928;51.076;7.950;2023-05-10T15:12:06;10.95;;;5.95;;
55031;SDS011;40928;51.076;7.950;2023-05-10T15:14:31;12.75;;;7.00;;